Time;durP1;ratioP1;P1;durP2;ratioP2;P2;SDS_P1;SDS_P2;PMS_P1;PMS_P2;Temp;Humidity;BMP_temperature;BMP_pressure;BME280_temperature;BME280_humidity;BME280_pressure;Samples;Min_cycle;Max_cycle;Signal;HPM_P1;HPM_P2
2021/11/26 00:00:41;;;;;;;46.85;36.58;;;;;;;-0.54;100.00;94928.78;5011809;28;24427;-75
2021/11/26 00:03:07;;;;;;;48.30;37.72;;;;;;;-0.80;100.00;94928.78;5011346;28;24459;-75
2021/11/26 00:05:34;;;;;;;42.47;35.83;;;;;;;-0.87;100.00;94909.53;5010961;28;24429;-75
2021/11/26 00:08:00;;;;;;;51.22;39.00;;;;;;;-0.83;100.00;94911.91;5010969;28;24962;-75
2021/11/26 00:10:27;;;;;;;48.03;36.42;;;;;;;-0.91;100.00;94911.34;5011721;28;24779;-75
2021/11/26 00:12:58;;;;;;;43.70;34.88;;;;;;;-1.00;100.00;94897.22;5010245;28;24444;-75
2021/11/26 00:15:38;;;;;;;42.15;35.20;;;;;;;-0.90;100.00;94889.28;5011035;28;24431;-75
2021/11/26 00:18:08;;;;;;;44.35;33.55;;;;;;;-0.86;100.00;94888.31;5011108;28;24475;-75
2021/11/26 00:20:35;;;;;;;44.08;35.88;;;;;;;-1.04;100.00;94893.13;5010968;28;24535;-75
2021/11/26 00:23:02;;;;;;;45.38;34.63;;;;;;;-1.06;100.00;94881.34;5011219;28;24424;-75
2021/11/26 00:25:28;;;;;;;43.05;32.55;;;;;;;-0.99;100.00;94873.47;5010879;28;24436;-75
2021/11/26 00:27:55;;;;;;;41.03;34.13;;;;;;;-0.95;100.00;94875.91;5010587;28;25142;-75
2021/11/26 00:30:22;;;;;;;37.22;32.47;;;;;;;-0.89;100.00;94858.75;5011022;28;24424;-75
2021/11/26 00:32:50;;;;;;;40.00;31.97;;;;;;;-0.81;100.00;94859.31;5011384;28;24444;-75
2021/11/26 00:35:16;;;;;;;37.20;31.92;;;;;;;-0.65;100.00;94857.09;5010989;28;24962;-75
2021/11/26 00:37:43;;;;;;;40.90;33.65;;;;;;;-0.58;100.00;94848.38;5011053;28;24860;-75
2021/11/26 00:40:10;;;;;;;42.35;32.30;;;;;;;-0.57;100.00;94839.84;5011053;28;24432;-75
2021/11/26 00:42:39;;;;;;;43.22;33.60;;;;;;;-0.39;100.00;94835.03;5010794;28;24830;-75
2021/11/26 00:45:06;;;;;;;44.50;35.37;;;;;;;-0.33;100.00;94838.19;5010412;28;24432;-75
2021/11/26 00:47:33;;;;;;;40.30;32.95;;;;;;;-0.40;100.00;94839.28;5010491;28;24428;-75
2021/11/26 00:50:01;;;;;;;42.42;33.90;;;;;;;-0.43;100.00;94847.00;5010919;28;24429;-74
2021/11/26 00:52:27;;;;;;;39.90;30.40;;;;;;;-0.50;100.00;94843.84;5010704;28;24436;-76
2021/11/26 00:54:54;;;;;;;40.35;32.75;;;;;;;-0.39;100.00;94850.28;5010358;28;24978;-74
2021/11/26 00:57:20;;;;;;;40.30;32.88;;;;;;;-0.36;100.00;94851.00;5010638;28;24439;-75
2021/11/26 00:59:47;;;;;;;37.50;30.23;;;;;;;-0.51;100.00;94849.00;5011000;28;24775;-75
2021/11/26 01:02:14;;;;;;;40.30;31.98;;;;;;;-0.37;100.00;94844.28;5010382;28;24432;-75
2021/11/26 01:04:41;;;;;;;44.67;32.33;;;;;;;-0.45;100.00;94838.59;5010769;28;24429;-75
2021/11/26 01:07:09;;;;;;;38.25;31.27;;;;;;;-0.50;100.00;94838.75;5010412;28;24439;-75
2021/11/26 01:09:35;;;;;;;39.47;31.60;;;;;;;-0.51;100.00;94837.09;5010699;28;24786;-75
2021/11/26 01:12:02;;;;;;;38.15;30.83;;;;;;;-0.46;100.00;94836.94;5010609;28;24430;-75
2021/11/26 01:14:29;;;;;;;38.53;31.65;;;;;;;-0.33;100.00;94830.56;5010276;28;24447;-75
2021/11/26 01:16:56;;;;;;;36.50;31.60;;;;;;;-0.41;100.00;94829.97;5010027;28;24432;-75
2021/11/26 01:19:23;;;;;;;43.00;32.38;;;;;;;-0.32;100.00;94837.28;5010563;28;24467;-75
2021/11/26 01:21:49;;;;;;;39.17;32.00;;;;;;;-0.27;100.00;94839.66;5010319;28;24989;-75
2021/11/26 01:24:17;;;;;;;39.92;31.60;;;;;;;-0.29;100.00;94832.09;5011308;28;24510;-75
2021/11/26 01:26:43;;;;;;;37.00;31.08;;;;;;;-0.41;100.00;94821.50;5013834;28;24427;-75
2021/11/26 01:29:10;;;;;;;36.45;30.85;;;;;;;-0.44;100.00;94825.00;5014119;28;24429;-75
2021/11/26 01:31:37;;;;;;;35.07;30.53;;;;;;;-0.50;100.00;94823.50;5014205;28;24519;-75
2021/11/26 01:34:05;;;;;;;34.10;30.40;;;;;;;-0.49;100.00;94821.78;5014290;28;24448;-75
2021/11/26 01:36:33;;;;;;;39.47;31.30;;;;;;;-0.47;100.00;94814.94;5014085;28;24431;-75
2021/11/26 01:38:59;;;;;;;37.28;29.58;;;;;;;-0.44;100.00;94819.09;5014053;28;24424;-75
2021/11/26 01:41:27;;;;;;;38.03;30.47;;;;;;;-0.52;100.00;94816.78;5013989;28;24420;-75
2021/11/26 01:43:53;;;;;;;38.72;30.35;;;;;;;-0.67;100.00;94814.78;5014081;28;24428;-75
2021/11/26 01:46:20;;;;;;;39.50;30.45;;;;;;;-0.77;100.00;94812.56;5013868;28;24444;-75
2021/11/26 01:48:46;;;;;;;36.13;29.95;;;;;;;-0.66;100.00;94817.31;5014155;28;24806;-75
2021/11/26 01:51:14;;;;;;;35.90;29.40;;;;;;;-0.42;100.00;94814.78;5013958;28;24428;-75
2021/11/26 01:53:41;;;;;;;40.08;33.08;;;;;;;-0.06;100.00;94807.53;5013746;28;24452;-75
2021/11/26 01:56:08;;;;;;;37.05;30.27;;;;;;;0.04;100.00;94803.78;5013288;28;24436;-74
2021/11/26 01:58:38;;;;;;;43.50;32.90;;;;;;;0.04;100.00;94801.22;5013711;28;24954;-75
2021/11/26 02:01:05;;;;;;;40.00;32.38;;;;;;;-0.14;100.00;94790.00;5013670;28;25016;-75
2021/11/26 02:03:31;;;;;;;37.35;32.08;;;;;;;-0.18;100.00;94791.00;5013718;28;24427;-75
2021/11/26 02:05:58;;;;;;;36.95;31.35;;;;;;;-0.20;100.00;94780.03;5013181;28;24993;-74
2021/11/26 02:08:24;;;;;;;37.33;31.80;;;;;;;-0.33;100.00;94781.38;5013624;28;24463;-75
2021/11/26 02:10:51;;;;;;;36.90;30.45;;;;;;;-0.42;100.00;94784.25;5013184;28;24429;-75
2021/11/26 02:13:17;;;;;;;38.58;31.15;;;;;;;-0.37;100.00;94778.13;5013442;28;24440;-74
2021/11/26 02:15:45;;;;;;;40.85;32.03;;;;;;;-0.45;100.00;94777.53;5013160;28;24631;-75
2021/11/26 02:18:14;;;;;;;34.45;29.25;;;;;;;-0.45;100.00;94769.91;5013311;28;24428;-75
2021/11/26 02:20:42;;;;;;;38.03;30.90;;;;;;;-0.42;100.00;94772.34;5013262;28;24429;-75
2021/11/26 02:23:09;;;;;;;39.63;32.43;;;;;;;-0.51;100.00;94773.53;5013197;28;24431;-75
2021/11/26 02:25:36;;;;;;;48.60;35.90;;;;;;;-0.63;100.00;94771.44;5012401;28;24843;-75
2021/11/26 02:28:05;;;;;;;41.03;34.25;;;;;;;-0.62;100.00;94769.72;5013014;28;24615;-75
2021/11/26 02:30:32;;;;;;;40.92;32.78;;;;;;;-0.55;100.00;94776.25;5013323;28;24428;-75
2021/11/26 02:33:01;;;;;;;39.08;32.13;;;;;;;-0.44;100.00;94763.13;5012768;28;24983;-75
2021/11/26 02:35:28;;;;;;;39.58;31.67;;;;;;;-0.15;100.00;94759.50;5011926;28;24428;-75
2021/11/26 02:37:58;;;;;;;40.90;32.50;;;;;;;-0.10;100.00;94760.19;5012200;28;24428;-75
2021/11/26 02:40:26;;;;;;;37.13;30.93;;;;;;;-0.34;100.00;94760.19;5012841;28;24425;-75
2021/11/26 02:42:54;;;;;;;35.83;30.33;;;;;;;-0.33;100.00;94758.50;5012637;28;24412;-75
2021/11/26 02:45:22;;;;;;;41.45;30.65;;;;;;;-0.45;100.00;94747.03;5012461;28;24511;-74
2021/11/26 02:47:49;;;;;;;37.13;32.22;;;;;;;-0.58;100.00;94751.72;5013028;28;24416;-75
2021/11/26 02:50:18;;;;;;;40.00;32.85;;;;;;;-0.76;100.00;94755.75;5012589;28;24471;-75
2021/11/26 02:52:46;;;;;;;39.10;31.07;;;;;;;-0.74;100.00;94750.63;5012380;28;24958;-75
2021/11/26 02:55:16;;;;;;;36.53;30.33;;;;;;;-0.77;100.00;94755.81;5012116;28;24444;-75
2021/11/26 02:57:43;;;;;;;35.63;30.65;;;;;;;-0.85;100.00;94745.91;5012631;28;24787;-75
2021/11/26 03:00:12;;;;;;;37.50;29.20;;;;;;;-0.78;100.00;94752.44;5012525;28;24428;-75
2021/11/26 03:02:38;;;;;;;35.60;30.13;;;;;;;-0.60;100.00;94748.41;5012248;28;24486;-75
2021/11/26 03:05:06;;;;;;;34.10;29.03;;;;;;;-0.68;100.00;94745.31;5011972;28;24416;-75
2021/11/26 03:07:32;;;;;;;36.70;28.70;;;;;;;-0.67;100.00;94738.50;5012435;28;24433;-75
2021/11/26 03:10:00;;;;;;;32.45;28.05;;;;;;;-0.69;100.00;94740.28;5012288;28;24431;-75
2021/11/26 03:12:28;;;;;;;33.00;27.73;;;;;;;-0.62;100.00;94740.00;5012131;28;24531;-76
2021/11/26 03:14:55;;;;;;;32.97;28.52;;;;;;;-0.75;100.00;94737.06;5011633;28;24806;-75
2021/11/26 03:17:22;;;;;;;36.78;29.25;;;;;;;-0.76;100.00;94735.41;5011436;28;24448;-75
2021/11/26 03:19:49;;;;;;;35.80;28.90;;;;;;;-0.81;100.00;94742.38;5011674;28;24437;-75
2021/11/26 03:22:15;;;;;;;31.90;27.92;;;;;;;-0.83;100.00;94730.59;5011964;28;24429;-75
2021/11/26 03:24:42;;;;;;;36.55;27.45;;;;;;;-0.78;100.00;94729.56;5011663;28;24424;-75
2021/11/26 03:27:08;;;;;;;35.40;28.08;;;;;;;-0.77;100.00;94720.22;5011534;28;24432;-75
2021/11/26 03:29:36;;;;;;;29.63;25.57;;;;;;;-0.62;100.00;94714.59;5011822;28;24423;-75
2021/11/26 03:32:03;;;;;;;32.15;27.92;;;;;;;-0.38;100.00;94714.56;5011615;28;24954;-75
2021/11/26 03:34:30;;;;;;;31.90;27.05;;;;;;;-0.26;100.00;94714.09;5011476;28;24448;-75
2021/11/26 03:36:56;;;;;;;31.85;24.30;;;;;;;-0.22;100.00;94702.94;5011547;28;24432;-74
2021/11/26 03:39:23;;;;;;;27.80;24.88;;;;;;;-0.31;100.00;94698.19;5011772;28;24426;-75
2021/11/26 03:41:49;;;;;;;29.70;24.48;;;;;;;-0.30;100.00;94695.59;5011441;28;24954;-75
2021/11/26 03:44:16;;;;;;;31.38;24.75;;;;;;;-0.30;100.00;94692.19;5011729;28;24427;-76
2021/11/26 03:46:44;;;;;;;33.78;26.25;;;;;;;-0.26;100.00;94691.19;5011348;28;24437;-75
2021/11/26 03:49:10;;;;;;;33.47;27.45;;;;;;;-0.26;100.00;94688.66;5011322;28;24846;-75
2021/11/26 03:51:37;;;;;;;40.30;31.58;;;;;;;-0.37;100.00;94686.53;5011210;28;25017;-75
2021/11/26 03:54:03;;;;;;;47.00;33.33;;;;;;;-0.44;100.00;94679.19;5011053;28;24997;-75
2021/11/26 03:56:30;;;;;;;39.78;32.72;;;;;;;-0.46;100.00;94678.41;5010963;28;24467;-75
2021/11/26 03:58:56;;;;;;;40.33;32.35;;;;;;;-0.38;100.00;94672.13;5011240;28;24440;-75
2021/11/26 04:01:23;;;;;;;38.80;31.92;;;;;;;-0.42;100.00;94669.78;5011027;28;24432;-75
2021/11/26 04:03:50;;;;;;;38.88;30.70;;;;;;;-0.43;100.00;94671.50;5011348;28;24462;-75
2021/11/26 04:06:17;;;;;;;39.30;31.40;;;;;;;-0.45;100.00;94667.34;5010757;28;24431;-75
2021/11/26 04:08:43;;;;;;;40.42;33.33;;;;;;;-0.58;100.00;94669.53;5010881;28;24973;-74
2021/11/26 04:11:10;;;;;;;41.78;31.05;;;;;;;-0.52;100.00;94666.75;5011472;28;24420;-75
2021/11/26 04:13:36;;;;;;;34.22;30.55;;;;;;;-0.41;100.00;94658.72;5010886;28;24428;-75
2021/11/26 04:16:06;;;;;;;41.63;33.13;;;;;;;-0.33;100.00;94659.28;5010461;28;24467;-75
2021/11/26 04:18:34;;;;;;;39.97;32.60;;;;;;;-0.32;100.00;94655.84;5011029;28;24421;-75
2021/11/26 04:21:04;;;;;;;40.10;34.05;;;;;;;-0.30;100.00;94654.03;5010892;28;24791;-75
2021/11/26 04:23:30;;;;;;;39.20;30.80;;;;;;;-0.34;100.00;94653.31;5010808;28;24787;-75
2021/11/26 04:25:57;;;;;;;35.58;31.65;;;;;;;-0.45;100.00;94654.63;5010550;28;24783;-75
2021/11/26 04:28:24;;;;;;;40.55;33.72;;;;;;;-0.60;100.00;94649.22;5010471;28;24436;-75
2021/11/26 04:30:51;;;;;;;46.08;35.85;;;;;;;-0.71;100.00;94650.50;5010548;28;24427;-75
2021/11/26 04:33:18;;;;;;;43.42;33.08;;;;;;;-0.69;100.00;94643.66;5010503;28;24432;-75
2021/11/26 04:35:46;;;;;;;36.22;30.48;;;;;;;-0.59;100.00;94645.00;5010283;28;24468;-75
2021/11/26 04:38:14;;;;;;;38.22;31.48;;;;;;;-0.47;100.00;94630.97;5010742;28;24432;-75
2021/11/26 04:40:41;;;;;;;42.00;30.38;;;;;;;-0.43;100.00;94624.88;5010645;28;24794;-75
2021/11/26 04:43:07;;;;;;;37.28;28.13;;;;;;;-0.39;100.00;94619.63;5010374;28;24428;-75
2021/11/26 04:45:34;;;;;;;36.47;30.45;;;;;;;-0.45;100.00;94624.94;5010547;28;24416;-75
2021/11/26 04:48:00;;;;;;;47.58;35.97;;;;;;;-0.60;100.00;94625.50;5010545;28;24420;-75
2021/11/26 04:50:27;;;;;;;40.17;31.67;;;;;;;-0.60;100.00;94616.16;4998264;28;24440;-75
2021/11/26 04:52:53;;;;;;;39.78;32.33;;;;;;;-0.54;100.00;94610.84;5004205;28;24436;-75
2021/11/26 04:55:22;;;;;;;40.92;32.53;;;;;;;-0.48;100.00;94599.63;5010013;28;24455;-75
2021/11/26 04:57:48;;;;;;;43.15;31.58;;;;;;;-0.47;100.00;94593.66;5010210;28;24420;-74
2021/11/26 05:00:17;;;;;;;34.43;28.33;;;;;;;-0.42;100.00;94590.94;5012634;28;24985;-75
2021/11/26 05:02:44;;;;;;;37.03;29.30;;;;;;;-0.39;100.00;94588.28;5014715;28;24459;-75
2021/11/26 05:05:11;;;;;;;44.25;33.83;;;;;;;-0.64;100.00;94585.84;5014170;28;24423;-74
2021/11/26 05:07:38;;;;;;;38.97;30.48;;;;;;;-0.84;100.00;94594.22;5014261;28;24416;-74
2021/11/26 05:10:06;;;;;;;40.97;31.23;;;;;;;-0.97;100.00;94606.53;5014189;28;24477;-74
2021/11/26 05:12:36;;;;;;;37.42;30.80;;;;;;;-1.13;100.00;94608.00;5014338;28;24441;-74
2021/11/26 05:15:03;;;;;;;36.70;30.10;;;;;;;-1.26;100.00;94600.81;5006365;28;24456;-74
2021/11/26 05:17:30;;;;;;;34.10;29.23;;;;;;;-1.20;100.00;94604.84;5014012;28;25033;-73
2021/11/26 05:19:58;;;;;;;37.50;29.85;;;;;;;-1.23;100.00;94598.16;5014095;28;24959;-74
2021/11/26 05:22:24;;;;;;;37.80;30.10;;;;;;;-1.19;100.00;94608.19;5014058;28;24523;-73
2021/11/26 05:24:51;;;;;;;38.92;28.70;;;;;;;-1.16;100.00;94597.94;5013795;28;24513;-74
2021/11/26 05:27:17;;;;;;;32.25;27.83;;;;;;;-1.11;100.00;94599.44;5014184;28;24424;-74
2021/11/26 05:29:45;;;;;;;33.63;28.05;;;;;;;-1.05;100.00;94595.84;5011762;28;24440;-72
2021/11/26 05:32:12;;;;;;;35.20;28.58;;;;;;;-1.04;100.00;94593.25;5013474;28;24432;-74
2021/11/26 05:34:38;;;;;;;34.75;27.73;;;;;;;-0.91;100.00;94596.16;5013433;28;24854;-74
2021/11/26 05:37:05;;;;;;;30.83;26.10;;;;;;;-0.77;100.00;94596.47;5013601;28;24429;-74
2021/11/26 05:39:32;;;;;;;33.95;26.60;;;;;;;-0.67;100.00;94596.94;5013579;28;24432;-74
2021/11/26 05:41:58;;;;;;;34.58;29.83;;;;;;;-0.54;100.00;94587.16;5013752;28;24455;-74
2021/11/26 05:44:25;;;;;;;39.92;30.50;;;;;;;-0.35;100.00;94572.81;5014091;28;24840;-74
2021/11/26 05:46:53;;;;;;;37.55;29.27;;;;;;;-0.34;100.00;94561.75;5013330;28;24502;-74
2021/11/26 05:49:19;;;;;;;32.80;28.25;;;;;;;-0.34;100.00;94556.66;5013516;28;24420;-74
2021/11/26 05:51:46;;;;;;;36.78;28.27;;;;;;;-0.47;100.00;94560.59;5013400;28;24439;-74
2021/11/26 05:54:12;;;;;;;37.92;28.40;;;;;;;-0.57;100.00;94560.09;5013549;28;24938;-74
2021/11/26 05:56:39;;;;;;;35.17;29.95;;;;;;;-0.69;100.00;94564.84;5013463;28;24418;-74
2021/11/26 05:59:05;;;;;;;38.75;29.40;;;;;;;-0.77;100.00;94565.97;5013556;28;24557;-74
2021/11/26 06:01:32;;;;;;;36.30;30.90;;;;;;;-0.86;100.00;94568.84;5013806;28;24420;-74
2021/11/26 06:03:59;;;;;;;33.70;29.85;;;;;;;-0.89;100.00;94561.38;5013315;28;24747;-74
2021/11/26 06:06:26;;;;;;;42.95;32.60;;;;;;;-0.90;100.00;94566.47;5012853;28;24420;-74
2021/11/26 06:08:52;;;;;;;41.30;31.63;;;;;;;-0.89;100.00;94570.69;5013317;28;24478;-74
2021/11/26 06:11:19;;;;;;;45.55;31.75;;;;;;;-0.93;100.00;94564.88;5013276;28;24436;-74
2021/11/26 06:13:45;;;;;;;39.30;31.75;;;;;;;-0.93;100.00;94572.50;5013199;28;24424;-74
2021/11/26 06:16:12;;;;;;;37.17;30.53;;;;;;;-0.91;100.00;94572.47;5012699;28;24455;-74
2021/11/26 06:18:38;;;;;;;36.13;28.90;;;;;;;-0.85;100.00;94565.44;5013018;28;24431;-74
2021/11/26 06:21:06;;;;;;;39.25;31.40;;;;;;;-0.85;100.00;94557.81;5012901;28;24651;-74
2021/11/26 06:23:32;;;;;;;36.83;28.88;;;;;;;-0.69;100.00;94558.06;5013093;28;24783;-74
2021/11/26 06:25:59;;;;;;;31.50;27.20;;;;;;;-0.57;100.00;94556.75;5012624;28;24848;-74
2021/11/26 06:28:25;;;;;;;40.07;29.97;;;;;;;-0.36;100.00;94555.91;5012734;28;24467;-74
2021/11/26 06:30:52;;;;;;;41.78;30.05;;;;;;;-0.27;100.00;94550.44;5013053;28;24424;-74
2021/11/26 06:33:18;;;;;;;38.20;29.67;;;;;;;-0.26;100.00;94552.13;5012734;28;24500;-74
2021/11/26 06:35:45;;;;;;;35.22;29.33;;;;;;;-0.23;100.00;94551.13;5012098;28;24998;-74
2021/11/26 06:38:13;;;;;;;45.47;30.30;;;;;;;-0.25;100.00;94545.31;5012935;28;24471;-74
2021/11/26 06:40:39;;;;;;;34.53;30.90;;;;;;;-0.08;100.00;94544.59;5012739;28;24502;-74
2021/11/26 06:43:06;;;;;;;43.78;32.50;;;;;;;-0.26;100.00;94549.56;5012568;28;24427;-74
2021/11/26 06:45:32;;;;;;;47.50;32.72;;;;;;;-0.41;100.00;94546.78;5012222;28;24425;-74
2021/11/26 06:47:59;;;;;;;39.40;29.60;;;;;;;-0.32;100.00;94538.81;5012312;28;24423;-75
2021/11/26 06:50:25;;;;;;;35.33;30.17;;;;;;;-0.30;100.00;94532.78;5012444;28;24436;-74
2021/11/26 06:52:52;;;;;;;43.08;32.55;;;;;;;-0.30;100.00;94532.78;5012478;28;24423;-73
2021/11/26 06:55:21;;;;;;;45.13;34.47;;;;;;;-0.41;100.00;94529.81;5011834;28;24452;-74
2021/11/26 06:57:48;;;;;;;38.95;33.28;;;;;;;-0.39;100.00;94529.75;5012051;28;24424;-74
2021/11/26 07:00:17;;;;;;;60.30;41.28;;;;;;;-0.36;100.00;94532.19;5012057;28;24432;-74
2021/11/26 07:02:43;;;;;;;60.08;44.13;;;;;;;-0.45;100.00;94527.44;5011695;28;24436;-74
2021/11/26 07:05:11;;;;;;;71.78;52.53;;;;;;;-0.40;100.00;94526.41;5011419;28;25009;-74
2021/11/26 07:07:38;;;;;;;51.10;37.53;;;;;;;-0.44;100.00;94521.50;5011951;28;24432;-74
2021/11/26 07:10:06;;;;;;;44.63;34.33;;;;;;;-0.47;100.00;94522.44;5011711;28;24451;-73
2021/11/26 07:12:34;;;;;;;42.90;32.55;;;;;;;-0.39;100.00;94520.41;5011612;28;24421;-74
2021/11/26 07:15:01;;;;;;;41.03;31.23;;;;;;;-0.42;100.00;94515.44;5011498;28;24514;-74
2021/11/26 07:17:27;;;;;;;39.33;29.77;;;;;;;-0.30;100.00;94516.66;5012117;28;24447;-74
2021/11/26 07:19:54;;;;;;;52.03;39.60;;;;;;;-0.26;100.00;94515.63;5012022;28;24436;-74
2021/11/26 07:22:20;;;;;;;49.22;35.17;;;;;;;-0.21;100.00;94508.66;5011527;28;24439;-74
2021/11/26 07:24:47;;;;;;;34.63;30.25;;;;;;;-0.19;100.00;94516.22;5011832;28;24447;-73
2021/11/26 07:27:14;;;;;;;46.40;34.97;;;;;;;-0.22;100.00;94507.03;5011508;28;24424;-74
2021/11/26 07:29:43;;;;;;;52.13;39.08;;;;;;;-0.22;100.00;94508.72;5011517;28;24431;-74
2021/11/26 07:32:10;;;;;;;40.05;31.77;;;;;;;-0.29;100.00;94501.34;5011911;28;24421;-73
2021/11/26 07:34:39;;;;;;;41.00;30.60;;;;;;;-0.31;100.00;94505.66;5011708;28;24838;-74
2021/11/26 07:37:06;;;;;;;40.67;31.92;;;;;;;-0.40;100.00;94502.69;5011369;28;24531;-74
2021/11/26 07:39:34;;;;;;;44.85;32.05;;;;;;;-0.43;100.00;94493.44;5011628;28;24420;-74
2021/11/26 07:42:03;;;;;;;44.03;32.20;;;;;;;-0.39;100.00;94505.16;5011504;28;24484;-74
2021/11/26 07:44:29;;;;;;;44.47;31.88;;;;;;;-0.41;100.00;94490.81;5011622;28;24846;-74
2021/11/26 07:46:57;;;;;;;45.03;32.35;;;;;;;-0.43;100.00;94490.91;5011123;28;24954;-74
2021/11/26 07:49:24;;;;;;;42.10;32.03;;;;;;;-0.44;100.00;94491.81;5011472;28;24774;-74
2021/11/26 07:51:51;;;;;;;41.22;30.55;;;;;;;-0.41;100.00;94485.75;5011185;28;24965;-74
2021/11/26 07:54:18;;;;;;;41.88;32.28;;;;;;;-0.41;100.00;94481.47;5011568;28;24516;-74
2021/11/26 07:56:44;;;;;;;37.22;30.63;;;;;;;-0.39;100.00;94477.16;5010893;28;24459;-74
2021/11/26 07:59:11;;;;;;;38.33;31.58;;;;;;;-0.36;100.00;94478.78;5011121;28;24988;-74
2021/11/26 08:01:37;;;;;;;37.55;32.92;;;;;;;-0.40;100.00;94472.97;5011278;28;24439;-74
2021/11/26 08:04:05;;;;;;;39.33;32.05;;;;;;;-0.40;100.00;94472.16;5011378;28;24428;-74
2021/11/26 08:06:32;;;;;;;39.70;32.45;;;;;;;-0.39;100.00;94472.06;5011051;28;24428;-74
2021/11/26 08:08:58;;;;;;;41.67;30.92;;;;;;;-0.35;100.00;94475.31;5011158;28;24478;-74
2021/11/26 08:11:25;;;;;;;43.30;31.67;;;;;;;-0.34;100.00;94477.78;5010934;28;24427;-74
2021/11/26 08:13:51;;;;;;;42.70;31.93;;;;;;;-0.36;100.00;94469.41;5010888;28;24814;-74
2021/11/26 08:16:18;;;;;;;38.33;31.90;;;;;;;-0.37;100.00;94469.47;5010667;28;24464;-74
2021/11/26 08:18:44;;;;;;;38.13;32.63;;;;;;;-0.29;100.00;94470.81;5011013;28;24452;-74
2021/11/26 08:21:12;;;;;;;40.33;33.95;;;;;;;-0.42;100.00;94459.47;5010964;28;24416;-74
2021/11/26 08:23:38;;;;;;;47.07;34.20;;;;;;;-0.37;100.00;94456.75;5010827;28;24428;-74
2021/11/26 08:26:05;;;;;;;39.10;32.97;;;;;;;-0.33;100.00;94463.38;5010246;28;24424;-74
2021/11/26 08:28:32;;;;;;;39.65;32.40;;;;;;;-0.28;100.00;94453.84;5010825;28;24467;-74
2021/11/26 08:30:58;;;;;;;43.05;32.40;;;;;;;-0.28;100.00;94444.47;5010667;28;25001;-74
2021/11/26 08:33:26;;;;;;;49.77;34.87;;;;;;;-0.34;100.00;94433.72;5010257;28;24416;-74
2021/11/26 08:35:52;;;;;;;45.00;33.45;;;;;;;-0.39;100.00;94430.56;5010099;28;24444;-74
2021/11/26 08:38:21;;;;;;;39.15;32.90;;;;;;;-0.40;100.00;94421.28;5010568;28;24424;-74
2021/11/26 08:40:48;;;;;;;40.70;32.58;;;;;;;-0.41;100.00;94420.44;5010473;28;24959;-74
2021/11/26 08:43:15;;;;;;;46.47;34.75;;;;;;;-0.36;100.00;94415.16;5010707;28;24419;-74
2021/11/26 08:45:41;;;;;;;56.97;37.55;;;;;;;-0.43;100.00;94417.13;5010325;28;24427;-74
2021/11/26 08:48:08;;;;;;;54.10;36.83;;;;;;;-0.35;100.00;94407.47;5010689;28;24423;-74
2021/11/26 08:50:35;;;;;;;42.30;35.17;;;;;;;-0.22;100.00;94412.88;5010647;28;24956;-74
2021/11/26 08:53:03;;;;;;;41.65;34.15;;;;;;;-0.13;100.00;94407.38;5010384;28;24421;-74
2021/11/26 08:55:32;;;;;;;46.33;34.70;;;;;;;-0.09;100.00;94402.97;5010262;28;25044;-74
2021/11/26 08:57:58;;;;;;;43.22;35.08;;;;;;;-0.23;100.00;94390.03;5010497;28;24428;-74
2021/11/26 09:00:27;;;;;;;41.08;33.13;;;;;;;-0.14;100.00;94390.47;5010660;28;24451;-74
2021/11/26 09:02:54;;;;;;;49.90;35.70;;;;;;;-0.12;100.00;94382.75;5010410;28;24473;-74
2021/11/26 09:05:21;;;;;;;46.95;35.85;;;;;;;-0.21;100.00;94385.72;5010146;28;24424;-74
2021/11/26 09:07:48;;;;;;;42.88;35.80;;;;;;;-0.30;100.00;94392.00;5010124;28;24447;-74
2021/11/26 09:10:15;;;;;;;40.90;35.55;;;;;;;-0.35;100.00;94404.09;5010560;28;24427;-74
2021/11/26 09:12:43;;;;;;;46.83;37.88;;;;;;;-0.42;100.00;94397.63;5010421;28;24419;-74
2021/11/26 09:15:12;;;;;;;45.67;36.28;;;;;;;-0.37;100.00;94396.53;5009896;28;24435;-74
2021/11/26 09:17:39;;;;;;;48.80;40.10;;;;;;;-0.31;100.00;94401.34;5010228;28;24502;-74
2021/11/26 09:20:07;;;;;;;50.58;37.55;;;;;;;-0.38;100.00;94397.41;5010665;28;24954;-74
2021/11/26 09:22:33;;;;;;;47.35;36.20;;;;;;;-0.38;100.00;94401.69;5010236;28;24431;-74
2021/11/26 09:24:59;;;;;;;47.90;35.40;;;;;;;-0.21;100.00;94396.72;5009960;28;24443;-74
2021/11/26 09:27:26;;;;;;;42.45;34.45;;;;;;;0.01;100.00;94393.25;5010255;28;24431;-74
2021/11/26 09:29:54;;;;;;;41.15;33.50;;;;;;;0.01;100.00;94396.59;5010004;28;24428;-74
2021/11/26 09:32:20;;;;;;;42.92;33.40;;;;;;;0.10;100.00;94386.00;5010320;28;25043;-74
2021/11/26 09:34:48;;;;;;;45.72;34.05;;;;;;;0.10;100.00;94387.72;5009984;28;24950;-74
2021/11/26 09:37:14;;;;;;;40.75;32.63;;;;;;;0.23;100.00;94386.31;5010073;28;24554;-74
2021/11/26 09:39:41;;;;;;;39.63;31.90;;;;;;;0.38;100.00;94388.16;5010422;28;24475;-74
2021/11/26 09:42:07;;;;;;;44.97;34.55;;;;;;;0.24;100.00;94391.31;5010108;28;24958;-74
2021/11/26 09:44:35;;;;;;;46.63;33.83;;;;;;;0.19;100.00;94377.97;5010172;28;24419;-74
2021/11/26 09:47:04;;;;;;;43.95;35.05;;;;;;;0.16;100.00;94385.75;5014400;28;24491;-74
2021/11/26 09:49:31;;;;;;;41.30;33.47;;;;;;;0.26;100.00;94385.31;5013612;28;24447;-74
2021/11/26 09:51:58;;;;;;;40.92;33.25;;;;;;;0.39;100.00;94381.34;5013855;28;24452;-74
2021/11/26 09:54:25;;;;;;;47.23;33.50;;;;;;;0.35;100.00;94382.38;5013669;28;24427;-74
2021/11/26 09:56:52;;;;;;;45.75;33.45;;;;;;;0.43;100.00;94377.75;5013089;28;24821;-74
2021/11/26 09:59:19;;;;;;;43.63;33.47;;;;;;;0.42;100.00;94371.84;5013433;28;24958;-74
2021/11/26 10:01:46;;;;;;;43.15;34.58;;;;;;;0.41;100.00;94365.09;5013194;28;24427;-74
2021/11/26 10:04:18;;;;;;;43.13;34.33;;;;;;;0.37;100.00;94352.56;5013403;28;24474;-74
2021/11/26 10:06:46;;;;;;;39.35;32.30;;;;;;;0.46;100.00;94347.06;5012979;28;24423;-74
2021/11/26 10:09:14;;;;;;;36.47;31.00;;;;;;;0.48;100.00;94335.06;5013373;28;24417;-74
2021/11/26 10:11:46;;;;;;;38.30;31.35;;;;;;;0.57;100.00;94332.09;5013270;28;24427;-73
2021/11/26 10:14:19;;;;;;;38.90;31.65;;;;;;;0.54;100.00;94328.88;5012977;28;24554;-73
2021/11/26 10:16:48;;;;;;;42.25;31.85;;;;;;;0.61;100.00;94325.97;5013034;28;24448;-73
2021/11/26 10:19:15;;;;;;;44.08;31.70;;;;;;;0.57;100.00;94319.34;5013313;28;24491;-73
2021/11/26 10:21:44;;;;;;;39.58;32.15;;;;;;;0.56;100.00;94312.63;5013178;28;24896;-74
2021/11/26 10:24:16;;;;;;;36.58;31.63;;;;;;;0.56;100.00;94309.25;5013433;28;24474;-74
2021/11/26 10:26:51;;;;;;;37.33;30.50;;;;;;;0.60;100.00;94303.94;5012597;28;24969;-74
2021/11/26 10:29:29;;;;;;;47.42;34.75;;;;;;;0.46;100.00;94304.56;5012809;28;24425;-74
2021/11/26 10:32:05;;;;;;;45.03;32.78;;;;;;;0.48;100.00;94309.59;5012982;28;24423;-73
2021/11/26 10:34:31;;;;;;;45.90;32.55;;;;;;;0.56;100.00;94299.06;5012885;28;24455;-74
2021/11/26 10:36:59;;;;;;;40.25;31.92;;;;;;;0.58;100.00;94303.16;5012338;28;24449;-73
2021/11/26 10:39:26;;;;;;;39.80;30.25;;;;;;;0.64;100.00;94286.78;5012549;28;24818;-74
2021/11/26 10:41:55;;;;;;;40.25;31.98;;;;;;;0.62;100.00;94296.19;5012727;28;24424;-74
2021/11/26 10:44:32;;;;;;;45.28;34.20;;;;;;;0.60;100.00;94288.66;5012630;28;24535;-74
2021/11/26 10:47:07;;;;;;;43.65;32.90;;;;;;;0.64;100.00;94279.13;5012474;28;24506;-74
2021/11/26 10:49:44;;;;;;;42.57;33.20;;;;;;;0.64;100.00;94284.22;5012527;28;24478;-74
2021/11/26 10:57:57;;;;;;;48.78;34.92;;;;;;;0.73;100.00;94263.38;5011346;28;24455;-74
2021/11/26 11:00:25;;;;;;;51.05;35.80;;;;;;;0.80;100.00;94264.75;5012627;28;24927;-74
2021/11/26 11:02:55;;;;;;;50.10;37.10;;;;;;;0.80;100.00;94256.28;5012534;28;24427;-74
2021/11/26 11:05:25;;;;;;;43.95;34.00;;;;;;;0.84;100.00;94253.50;5012143;28;24483;-74
2021/11/26 11:07:53;;;;;;;48.45;34.00;;;;;;;0.82;100.00;94244.28;5012085;28;24424;-73
2021/11/26 11:10:32;;;;;;;44.20;32.95;;;;;;;0.69;100.00;94244.06;5012321;28;24427;-73
2021/11/26 11:13:06;;;;;;;45.43;33.57;;;;;;;0.67;100.00;94238.22;5012184;28;24608;-74
2021/11/26 11:15:33;;;;;;;38.28;32.42;;;;;;;0.72;100.00;94237.09;5011902;28;24763;-74